createdAt,value
2022-12-03T00:00:00.098Z,3.90
2022-12-03T00:02:28.281Z,3.90
2022-12-03T00:04:55.494Z,3.90
2022-12-03T00:07:22.454Z,3.90
2022-12-03T00:09:49.228Z,3.90
2022-12-03T00:12:16.003Z,3.90
2022-12-03T00:14:44.885Z,3.80
2022-12-03T00:17:11.941Z,3.80
2022-12-03T00:19:38.898Z,3.80
2022-12-03T00:22:05.651Z,3.70
2022-12-03T00:24:32.444Z,3.70
2022-12-03T00:26:59.259Z,3.70
2022-12-03T00:29:27.207Z,3.60
2022-12-03T00:31:54.073Z,3.60
2022-12-03T00:34:22.360Z,3.60
2022-12-03T00:36:49.408Z,3.60
2022-12-03T00:39:16.207Z,3.60
2022-12-03T00:41:43.005Z,3.60
2022-12-03T00:44:10.375Z,3.60
2022-12-03T00:46:37.245Z,3.60
2022-12-03T00:49:04.282Z,3.60
2022-12-03T00:51:31.119Z,3.60
2022-12-03T00:53:57.934Z,3.60
2022-12-03T00:56:25.088Z,3.60
2022-12-03T00:58:52.010Z,3.60
2022-12-03T01:01:18.927Z,3.60
2022-12-03T01:03:45.918Z,3.60
2022-12-03T01:06:12.721Z,3.50
2022-12-03T01:08:39.673Z,3.60
2022-12-03T01:11:26.528Z,3.50
2022-12-03T01:13:53.270Z,3.50
2022-12-03T01:16:20.153Z,3.50
2022-12-03T01:18:47.148Z,3.60
2022-12-03T01:21:13.889Z,3.50
2022-12-03T01:23:40.752Z,3.50
2022-12-03T01:26:07.532Z,3.50
2022-12-03T01:28:35.499Z,3.50
2022-12-03T01:31:21.084Z,3.50
2022-12-03T01:33:48.098Z,3.50
2022-12-03T01:36:14.946Z,3.40
2022-12-03T01:38:41.702Z,3.40
2022-12-03T01:41:11.716Z,3.30
2022-12-03T01:43:39.091Z,3.30
2022-12-03T01:46:06.238Z,3.30
2022-12-03T01:48:35.688Z,3.30
2022-12-03T01:51:02.644Z,3.30
2022-12-03T01:53:29.433Z,3.30
2022-12-03T01:55:56.289Z,3.30
2022-12-03T01:58:26.159Z,3.30
2022-12-03T02:00:54.394Z,3.30
2022-12-03T02:03:23.628Z,3.30
2022-12-03T02:05:50.860Z,3.40
2022-12-03T02:08:27.849Z,3.40
2022-12-03T02:10:54.794Z,3.30
2022-12-03T02:13:25.306Z,3.20
2022-12-03T02:15:52.298Z,3.20
2022-12-03T02:18:19.354Z,3.20
2022-12-03T02:21:06.576Z,3.20
2022-12-03T02:23:41.061Z,3.20
2022-12-03T02:26:08.032Z,3.20
2022-12-03T02:28:39.262Z,3.10
2022-12-03T02:31:09.931Z,3.10
2022-12-03T02:33:36.902Z,3.10
2022-12-03T02:36:04.349Z,3.00
2022-12-03T02:38:32.307Z,3.00
2022-12-03T02:41:02.267Z,3.00
2022-12-03T02:43:29.025Z,3.10
2022-12-03T02:45:58.264Z,3.10
2022-12-03T02:48:25.157Z,3.10
2022-12-03T02:50:53.446Z,3.00
2022-12-03T02:53:23.970Z,2.90
2022-12-03T02:55:51.702Z,2.90
2022-12-03T02:58:19.139Z,2.90
2022-12-03T03:00:46.592Z,2.90
2022-12-03T03:03:13.505Z,2.90
2022-12-03T03:05:41.542Z,2.90
2022-12-03T03:08:08.935Z,2.90
2022-12-03T03:10:37.585Z,2.80
2022-12-03T03:13:06.610Z,2.80
2022-12-03T03:15:40.195Z,2.70
2022-12-03T03:18:08.335Z,2.70
2022-12-03T03:20:35.980Z,2.70
2022-12-03T03:23:13.143Z,2.70
2022-12-03T03:25:40.858Z,2.70
2022-12-03T03:28:08.057Z,2.70
2022-12-03T03:30:37.105Z,2.70
2022-12-03T03:33:04.097Z,2.60
2022-12-03T03:35:31.087Z,2.60
2022-12-03T03:37:58.717Z,2.60
2022-12-03T03:40:25.851Z,2.60
2022-12-03T03:42:54.736Z,2.60
2022-12-03T03:45:28.554Z,2.60
2022-12-03T03:47:58.043Z,2.60
2022-12-03T03:50:25.555Z,2.60
2022-12-03T03:52:52.861Z,2.60
2022-12-03T03:55:20.442Z,2.60
2022-12-03T03:57:48.107Z,2.70
2022-12-03T04:00:16.872Z,2.70
2022-12-03T04:02:43.838Z,2.70
2022-12-03T04:05:18.114Z,2.70
2022-12-03T04:07:45.049Z,2.60
2022-12-03T04:10:31.349Z,2.60
2022-12-03T04:12:58.450Z,2.60
2022-12-03T04:15:25.683Z,2.60
2022-12-03T04:18:11.180Z,2.60
2022-12-03T04:20:38.123Z,2.60
2022-12-03T04:23:08.187Z,2.70
2022-12-03T04:25:53.741Z,2.60
2022-12-03T04:28:39.107Z,2.70
2022-12-03T04:31:26.097Z,2.60
2022-12-03T04:34:11.298Z,2.60
2022-12-03T04:36:38.145Z,2.60
2022-12-03T04:39:05.159Z,2.70
2022-12-03T04:41:31.972Z,2.60
2022-12-03T04:44:17.386Z,2.60
2022-12-03T04:46:44.186Z,2.60
2022-12-03T04:49:14.878Z,2.60
2022-12-03T04:51:41.688Z,2.60
2022-12-03T04:54:08.461Z,2.60
2022-12-03T04:56:35.290Z,2.60
2022-12-03T04:59:02.081Z,2.60
2022-12-03T05:01:28.942Z,2.70
2022-12-03T05:03:55.846Z,2.70
2022-12-03T05:06:23.002Z,2.70
2022-12-03T05:08:49.898Z,2.60
2022-12-03T05:11:19.168Z,2.70
2022-12-03T05:13:46.014Z,2.60
2022-12-03T05:16:13.002Z,2.60
2022-12-03T05:18:39.780Z,2.60
2022-12-03T05:21:06.561Z,2.50
2022-12-03T05:23:33.359Z,2.40
2022-12-03T05:26:00.238Z,2.50
2022-12-03T05:28:29.305Z,2.50
2022-12-03T05:30:56.212Z,2.50
2022-12-03T05:33:23.138Z,2.40
2022-12-03T05:35:49.950Z,2.40
2022-12-03T05:38:16.814Z,2.40
2022-12-03T05:40:43.698Z,2.40
2022-12-03T05:43:10.637Z,2.40
2022-12-03T05:45:38.652Z,2.40
2022-12-03T05:48:06.493Z,2.40
2022-12-03T05:50:34.092Z,2.40
2022-12-03T05:53:14.135Z,2.40
2022-12-03T05:55:41.213Z,2.40
2022-12-03T05:58:09.133Z,2.40
2022-12-03T06:00:42.356Z,2.40
2022-12-03T06:03:10.432Z,2.40
2022-12-03T06:05:46.652Z,2.40
2022-12-03T06:08:13.550Z,2.50
2022-12-03T06:10:40.472Z,2.50
2022-12-03T06:13:07.263Z,2.50
2022-12-03T06:15:41.986Z,2.40
2022-12-03T06:18:10.385Z,2.40
2022-12-03T06:20:37.173Z,2.40
2022-12-03T06:23:04.020Z,2.30
2022-12-03T06:25:30.819Z,2.30
2022-12-03T06:27:57.713Z,2.40
2022-12-03T06:30:24.605Z,2.30
2022-12-03T06:32:51.450Z,2.20
2022-12-03T06:35:19.029Z,2.20
2022-12-03T06:37:48.858Z,2.20
2022-12-03T06:40:16.888Z,2.20
2022-12-03T06:42:44.014Z,2.10
2022-12-03T06:45:11.858Z,2.10
2022-12-03T06:47:38.733Z,2.10
2022-12-03T06:50:06.316Z,2.20
2022-12-03T06:52:33.091Z,2.20
2022-12-03T06:55:00.076Z,2.20
2022-12-03T06:57:26.937Z,2.20
2022-12-03T06:59:53.925Z,2.30
2022-12-03T07:02:20.832Z,2.30
2022-12-03T07:04:47.772Z,2.30
2022-12-03T07:07:14.583Z,2.20
2022-12-03T07:09:41.407Z,2.20
2022-12-03T07:12:08.336Z,2.20
2022-12-03T07:14:35.367Z,2.10
2022-12-03T07:17:02.200Z,2.20
2022-12-03T07:19:32.845Z,2.20
2022-12-03T07:22:00.394Z,2.10
2022-12-03T07:24:27.246Z,2.10
2022-12-03T07:26:54.177Z,2.00
2022-12-03T07:29:26.523Z,2.00
2022-12-03T07:31:53.819Z,2.00
2022-12-03T07:34:21.680Z,2.00
2022-12-03T07:36:48.677Z,2.00
2022-12-03T07:39:15.808Z,2.00
2022-12-03T07:41:42.664Z,1.90
2022-12-03T07:44:14.287Z,1.90
2022-12-03T07:46:41.581Z,1.90
2022-12-03T07:49:08.783Z,1.90
2022-12-03T07:51:35.654Z,2.00
2022-12-03T07:54:02.667Z,2.00
2022-12-03T07:56:29.577Z,1.90
2022-12-03T07:58:56.534Z,2.00
2022-12-03T08:01:23.456Z,2.00
2022-12-03T08:03:50.442Z,1.90
2022-12-03T08:06:17.241Z,1.90
2022-12-03T08:08:44.208Z,1.80
2022-12-03T08:11:13.754Z,1.80
2022-12-03T08:13:40.954Z,1.90
2022-12-03T08:16:16.417Z,2.00
2022-12-03T08:18:43.972Z,2.00
2022-12-03T08:21:12.398Z,2.00
2022-12-03T08:23:39.248Z,1.90
2022-12-03T08:26:23.451Z,1.90
2022-12-03T08:28:50.955Z,1.90
2022-12-03T08:31:20.791Z,1.90
2022-12-03T08:33:49.172Z,2.00
2022-12-03T08:36:19.154Z,2.00
2022-12-03T08:38:49.696Z,2.00
2022-12-03T08:41:37.617Z,2.00
2022-12-03T08:44:23.163Z,2.00
2022-12-03T08:46:53.349Z,2.00
2022-12-03T08:49:21.009Z,1.90
2022-12-03T08:51:48.700Z,1.80
2022-12-03T08:54:18.893Z,1.80
2022-12-03T08:56:45.873Z,1.80
2022-12-03T08:59:23.851Z,1.80
2022-12-03T09:01:51.724Z,1.80
2022-12-03T09:04:36.053Z,1.90
2022-12-03T09:07:03.280Z,2.00
2022-12-03T09:09:30.559Z,2.00
2022-12-03T09:11:57.758Z,2.00
2022-12-03T09:14:24.861Z,2.10
2022-12-03T09:16:55.825Z,2.10
2022-12-03T09:19:24.433Z,2.10
2022-12-03T09:21:51.446Z,2.10
2022-12-03T09:24:18.318Z,2.10
2022-12-03T09:26:45.113Z,2.10
2022-12-03T09:29:12.780Z,2.10
2022-12-03T09:31:41.204Z,2.10
2022-12-03T09:34:08.468Z,2.20
2022-12-03T09:36:35.271Z,2.20
2022-12-03T09:39:02.124Z,2.10
2022-12-03T09:41:28.912Z,2.20
2022-12-03T09:44:05.199Z,2.20
2022-12-03T09:46:33.961Z,2.20
2022-12-03T09:49:01.161Z,2.20
2022-12-03T09:51:30.578Z,2.20
2022-12-03T09:53:58.835Z,2.30
2022-12-03T09:56:25.760Z,2.40
2022-12-03T09:58:52.755Z,2.30
2022-12-03T10:01:21.434Z,2.40
2022-12-03T10:03:50.211Z,2.40
2022-12-03T10:06:19.008Z,2.40
2022-12-03T10:08:48.356Z,2.40
2022-12-03T10:11:15.951Z,2.50
2022-12-03T10:13:43.319Z,2.50
2022-12-03T10:16:12.168Z,2.50
2022-12-03T10:18:41.908Z,2.50
2022-12-03T10:21:16.685Z,2.60
2022-12-03T10:23:43.790Z,2.60
2022-12-03T10:26:10.656Z,2.70
2022-12-03T10:28:38.607Z,2.70
2022-12-03T10:31:06.903Z,2.80
2022-12-03T10:33:35.069Z,2.80
2022-12-03T10:36:20.843Z,2.90
2022-12-03T10:39:05.152Z,2.90
2022-12-03T10:41:32.025Z,2.90
2022-12-03T10:44:21.933Z,2.90
2022-12-03T10:47:06.026Z,2.80
2022-12-03T10:49:32.922Z,2.90
2022-12-03T10:51:59.872Z,3.00
2022-12-03T10:54:27.609Z,3.00
2022-12-03T10:56:54.404Z,3.00
2022-12-03T10:59:23.030Z,3.10
2022-12-03T11:01:50.425Z,3.00
2022-12-03T11:04:20.391Z,3.10
2022-12-03T11:06:47.572Z,3.10
2022-12-03T11:09:26.079Z,3.10
2022-12-03T11:11:53.264Z,3.20
2022-12-03T11:14:39.079Z,3.20
2022-12-03T11:17:06.757Z,3.20
2022-12-03T11:19:36.563Z,3.20
2022-12-03T11:22:06.379Z,3.30
2022-12-03T11:24:34.030Z,3.30
2022-12-03T11:27:00.790Z,3.30
2022-12-03T11:29:47.354Z,3.30
2022-12-03T11:32:49.926Z,3.30
2022-12-03T11:35:22.944Z,3.30
2022-12-03T11:37:49.831Z,3.30
2022-12-03T11:40:16.885Z,3.30
2022-12-03T11:42:44.437Z,3.40
2022-12-03T11:45:14.264Z,3.40
2022-12-03T11:47:45.900Z,3.40
2022-12-03T11:50:21.178Z,3.30
2022-12-03T11:52:55.561Z,3.30
2022-12-03T11:55:30.752Z,3.30
2022-12-03T11:58:01.298Z,3.30
2022-12-03T12:00:29.748Z,3.20
2022-12-03T12:02:57.868Z,3.20
2022-12-03T12:05:26.783Z,3.20
2022-12-03T12:07:54.772Z,3.10
2022-12-03T12:10:42.210Z,3.10
2022-12-03T12:13:34.970Z,3.20
2022-12-03T12:16:04.118Z,3.20
2022-12-03T12:18:37.362Z,3.10
2022-12-03T12:21:23.011Z,3.10
2022-12-03T12:23:49.902Z,3.10
2022-12-03T12:26:16.767Z,3.10
2022-12-03T12:28:43.639Z,3.10
2022-12-03T12:31:10.950Z,3.10
2022-12-03T12:33:37.770Z,3.10
2022-12-03T12:36:10.834Z,3.10
2022-12-03T12:38:37.630Z,3.10
2022-12-03T12:41:07.442Z,3.10
2022-12-03T12:43:36.402Z,3.10
2022-12-03T12:46:39.086Z,3.10
2022-12-03T12:48:59.812Z,3.10
2022-12-03T12:51:27.002Z,3.00
2022-12-03T12:53:53.957Z,3.00
2022-12-03T12:56:20.791Z,3.00
2022-12-03T12:58:48.001Z,3.00
2022-12-03T13:01:23.869Z,3.00
2022-12-03T13:03:52.325Z,3.00
2022-12-03T13:06:23.714Z,3.10
2022-12-03T13:08:50.775Z,3.00
2022-12-03T13:11:35.760Z,3.00
2022-12-03T13:14:11.076Z,3.10
2022-12-03T13:16:39.852Z,3.00
2022-12-03T13:19:13.953Z,2.90
2022-12-03T13:21:44.525Z,2.90
2022-12-03T13:24:31.495Z,2.90
2022-12-03T13:27:17.406Z,2.90
2022-12-03T13:29:48.002Z,2.90
2022-12-03T13:32:22.576Z,2.90
2022-12-03T13:34:55.345Z,3.00
2022-12-03T13:37:25.753Z,3.00
2022-12-03T13:39:55.527Z,3.00
2022-12-03T13:42:39.074Z,2.90
2022-12-03T13:45:26.827Z,2.90
2022-12-03T13:47:55.603Z,2.90
2022-12-03T13:50:34.815Z,2.90
2022-12-03T13:53:22.456Z,2.80
2022-12-03T13:55:50.762Z,2.80
2022-12-03T13:58:17.892Z,2.80
2022-12-03T14:00:45.908Z,2.80
2022-12-03T14:03:15.180Z,2.90
2022-12-03T14:05:42.216Z,2.90
2022-12-03T14:08:09.414Z,3.00
2022-12-03T14:10:36.253Z,2.90
2022-12-03T14:13:03.385Z,2.90
2022-12-03T14:15:30.278Z,2.90
2022-12-03T14:17:57.153Z,2.90
2022-12-03T14:20:24.067Z,2.90
2022-12-03T14:22:56.315Z,2.90
2022-12-03T14:25:25.862Z,2.80
2022-12-03T14:27:52.816Z,2.80
2022-12-03T14:30:19.700Z,2.80
2022-12-03T14:32:47.363Z,2.90
2022-12-03T14:35:14.223Z,2.90
2022-12-03T14:37:41.024Z,2.90
2022-12-03T14:40:09.028Z,2.80
2022-12-03T14:42:36.525Z,2.90
2022-12-03T14:45:04.492Z,2.80
2022-12-03T14:47:31.326Z,2.90
2022-12-03T14:49:58.211Z,2.90
2022-12-03T14:52:26.344Z,2.90
2022-12-03T14:54:53.180Z,2.90
2022-12-03T14:57:20.148Z,2.90
2022-12-03T14:59:47.239Z,2.90
2022-12-03T15:02:14.280Z,2.80
2022-12-03T15:04:41.466Z,2.80
2022-12-03T15:07:09.566Z,2.70
2022-12-03T15:09:37.335Z,2.70
2022-12-03T15:12:04.590Z,2.70
2022-12-03T15:14:31.466Z,2.70
2022-12-03T15:16:58.472Z,2.80
2022-12-03T15:19:26.379Z,2.80
2022-12-03T15:21:53.198Z,2.80
2022-12-03T15:24:20.022Z,2.90
2022-12-03T15:26:46.832Z,2.80
2022-12-03T15:29:13.603Z,2.70
2022-12-03T15:31:40.367Z,2.80
2022-12-03T15:34:07.217Z,2.70
2022-12-03T15:36:34.024Z,2.70
2022-12-03T15:39:00.801Z,2.70
2022-12-03T15:41:30.788Z,2.70
2022-12-03T15:43:58.762Z,2.60
2022-12-03T15:46:27.636Z,2.70
2022-12-03T15:48:54.964Z,2.70
2022-12-03T15:51:21.747Z,2.70
2022-12-03T15:53:48.547Z,2.80
2022-12-03T15:56:15.341Z,2.80
2022-12-03T15:58:42.165Z,2.70
2022-12-03T16:01:09.331Z,2.70
2022-12-03T16:03:36.311Z,2.70
2022-12-03T16:06:03.182Z,2.70
2022-12-03T16:08:29.993Z,2.70
2022-12-03T16:10:56.783Z,2.70
2022-12-03T16:13:23.552Z,2.70
2022-12-03T16:15:50.379Z,2.60
2022-12-03T16:18:17.225Z,2.60
2022-12-03T16:20:43.996Z,2.50
2022-12-03T16:23:10.786Z,2.40
2022-12-03T16:25:37.722Z,2.40
2022-12-03T16:28:06.184Z,2.30
2022-12-03T16:30:33.134Z,2.30
2022-12-03T16:33:01.250Z,2.30
2022-12-03T16:35:28.272Z,2.30
2022-12-03T16:37:55.089Z,2.30
2022-12-03T16:40:22.006Z,2.30
2022-12-03T16:42:48.877Z,2.40
2022-12-03T16:45:21.548Z,2.30
2022-12-03T16:47:49.149Z,2.30
2022-12-03T16:50:21.814Z,2.30
2022-12-03T16:52:51.439Z,2.40
2022-12-03T16:55:18.295Z,2.40
2022-12-03T16:57:45.014Z,2.30
2022-12-03T17:00:12.133Z,2.30
2022-12-03T17:03:09.294Z,2.30
2022-12-03T17:05:36.121Z,2.30
2022-12-03T17:08:02.994Z,2.30
2022-12-03T17:10:29.966Z,2.30
2022-12-03T17:13:12.456Z,2.30
2022-12-03T17:15:40.117Z,2.30
2022-12-03T17:18:07.799Z,2.30
2022-12-03T17:20:34.990Z,2.30
2022-12-03T17:23:02.044Z,2.30
2022-12-03T17:25:29.024Z,2.30
2022-12-03T17:27:55.878Z,2.30
2022-12-03T17:30:22.699Z,2.40
2022-12-03T17:32:50.454Z,2.40
2022-12-03T17:35:17.608Z,2.40
2022-12-03T17:37:44.441Z,2.30
2022-12-03T17:40:12.213Z,2.30
2022-12-03T17:42:39.045Z,2.20
2022-12-03T17:45:06.367Z,2.30
2022-12-03T17:47:33.301Z,2.30
2022-12-03T17:50:00.098Z,2.30
2022-12-03T17:52:26.945Z,2.30
2022-12-03T17:55:14.001Z,2.30
2022-12-03T17:57:41.094Z,2.30
2022-12-03T18:00:09.708Z,2.20
2022-12-03T18:02:39.215Z,2.20
2022-12-03T18:05:06.246Z,2.20
2022-12-03T18:07:33.273Z,2.20
2022-12-03T18:10:00.234Z,2.20
2022-12-03T18:12:27.044Z,2.20
2022-12-03T18:14:53.891Z,2.20
2022-12-03T18:17:20.677Z,2.30
2022-12-03T18:19:47.638Z,2.30
2022-12-03T18:22:14.484Z,2.30
2022-12-03T18:24:41.553Z,2.40
2022-12-03T18:27:08.492Z,2.40
2022-12-03T18:29:35.324Z,2.40
2022-12-03T18:32:02.255Z,2.40
2022-12-03T18:34:29.123Z,2.40
2022-12-03T18:36:55.950Z,2.40
2022-12-03T18:39:33.432Z,2.40
2022-12-03T18:42:00.259Z,2.40
2022-12-03T18:44:28.787Z,2.40
2022-12-03T18:46:57.526Z,2.40
2022-12-03T18:49:24.667Z,2.40
2022-12-03T18:51:57.536Z,2.30
2022-12-03T18:54:29.209Z,2.30
2022-12-03T18:56:56.031Z,2.30
2022-12-03T18:59:22.813Z,2.30
2022-12-03T19:01:50.333Z,2.30
2022-12-03T19:04:17.220Z,2.40
2022-12-03T19:06:44.022Z,2.40
2022-12-03T19:09:10.878Z,2.40
2022-12-03T19:11:37.980Z,2.40
2022-12-03T19:14:04.929Z,2.40
2022-12-03T19:16:32.031Z,2.30
2022-12-03T19:18:58.866Z,2.40
2022-12-03T19:21:28.370Z,2.40
2022-12-03T19:24:23.118Z,2.30
2022-12-03T19:26:45.965Z,2.40
2022-12-03T19:29:13.085Z,2.40
2022-12-03T19:31:40.191Z,2.40
2022-12-03T19:34:07.036Z,2.30
2022-12-03T19:36:33.898Z,2.40
2022-12-03T19:39:01.257Z,2.30
2022-12-03T19:41:30.685Z,2.40
2022-12-03T19:43:57.787Z,2.40
2022-12-03T19:46:25.581Z,2.30
2022-12-03T19:48:53.532Z,2.30
2022-12-03T19:51:34.309Z,2.30
2022-12-03T19:54:02.960Z,2.30
2022-12-03T19:56:32.951Z,2.30
2022-12-03T19:58:59.725Z,2.30
2022-12-03T20:01:28.244Z,2.20
2022-12-03T20:03:55.977Z,2.20
2022-12-03T20:06:24.548Z,2.20
2022-12-03T20:08:56.400Z,2.20
2022-12-03T20:11:24.654Z,2.10
2022-12-03T20:13:59.882Z,2.10
2022-12-03T20:16:27.242Z,2.10
2022-12-03T20:18:58.908Z,2.20
2022-12-03T20:21:26.187Z,2.20
2022-12-03T20:23:53.230Z,2.10
2022-12-03T20:26:20.583Z,2.10
2022-12-03T20:28:51.112Z,2.10
2022-12-03T20:31:19.591Z,2.10
2022-12-03T20:33:47.607Z,2.10
2022-12-03T20:36:15.457Z,2.10
2022-12-03T20:38:42.749Z,2.10
2022-12-03T20:41:18.796Z,2.20
2022-12-03T20:43:46.005Z,2.10
2022-12-03T20:46:12.927Z,2.10
2022-12-03T20:48:40.166Z,2.00
2022-12-03T20:51:08.500Z,2.10
2022-12-03T20:53:35.696Z,2.00
2022-12-03T20:56:02.912Z,2.00
2022-12-03T20:58:30.266Z,1.90
2022-12-03T21:01:10.033Z,1.90
2022-12-03T21:03:39.926Z,1.90
2022-12-03T21:06:07.345Z,1.90
2022-12-03T21:08:41.448Z,1.90
2022-12-03T21:11:13.767Z,1.90
2022-12-03T21:13:43.471Z,1.90
2022-12-03T21:16:11.564Z,1.80
2022-12-03T21:18:39.130Z,1.80
2022-12-03T21:21:06.270Z,1.80
2022-12-03T21:23:33.671Z,1.80
2022-12-03T21:26:07.372Z,1.80
2022-12-03T21:28:34.445Z,1.80
2022-12-03T21:31:02.531Z,1.80
2022-12-03T21:33:29.884Z,1.80
2022-12-03T21:35:58.585Z,1.70
2022-12-03T21:38:26.559Z,1.70
2022-12-03T21:40:54.880Z,1.70
2022-12-03T21:43:22.056Z,1.80
2022-12-03T21:45:49.180Z,1.70
2022-12-03T21:48:16.671Z,1.70
2022-12-03T21:50:43.691Z,1.70
2022-12-03T21:53:13.474Z,1.60
2022-12-03T21:55:41.071Z,1.50
2022-12-03T21:58:08.674Z,1.60
2022-12-03T22:00:36.286Z,1.60
2022-12-03T22:03:03.352Z,1.50
2022-12-03T22:08:38.249Z,1.60
2022-12-03T22:11:19.977Z,1.50
2022-12-03T22:13:47.563Z,1.50
2022-12-03T22:16:19.733Z,1.40
2022-12-03T22:18:46.614Z,1.30
2022-12-03T22:21:14.903Z,1.30
2022-12-03T22:23:44.250Z,1.30
2022-12-03T22:26:16.437Z,1.20
2022-12-03T22:28:44.454Z,1.20
2022-12-03T22:31:12.157Z,1.10
2022-12-03T22:33:39.246Z,1.10
2022-12-03T22:36:07.980Z,1.10
2022-12-03T22:38:35.089Z,1.00
2022-12-03T22:41:12.856Z,1.10
2022-12-03T22:43:42.496Z,1.00
2022-12-03T22:46:13.481Z,1.00
2022-12-03T22:48:41.501Z,1.00
2022-12-03T22:51:18.784Z,1.00
2022-12-03T22:53:45.885Z,1.10
2022-12-03T22:56:13.346Z,1.10
2022-12-03T22:58:43.667Z,1.10
2022-12-03T23:01:20.381Z,1.10
2022-12-03T23:03:47.424Z,1.00
2022-12-03T23:06:14.719Z,1.10
2022-12-03T23:08:41.713Z,1.20
2022-12-03T23:11:08.678Z,1.20
2022-12-03T23:13:35.912Z,1.20
2022-12-03T23:16:02.857Z,1.20
2022-12-03T23:18:29.719Z,1.20
2022-12-03T23:20:56.790Z,1.20
2022-12-03T23:23:24.829Z,1.20
2022-12-03T23:25:58.957Z,1.20
2022-12-03T23:28:29.027Z,1.20
2022-12-03T23:30:56.010Z,1.20
2022-12-03T23:33:23.475Z,1.10
2022-12-03T23:35:50.338Z,1.20
2022-12-03T23:38:17.294Z,1.20
2022-12-03T23:40:48.094Z,1.20
2022-12-03T23:43:15.548Z,1.10
2022-12-03T23:45:42.293Z,1.10
2022-12-03T23:48:09.129Z,1.00
2022-12-03T23:50:38.570Z,1.00
2022-12-03T23:53:08.350Z,1.00
2022-12-03T23:55:38.328Z,1.00
2022-12-03T23:58:05.082Z,1.10
